sensor_id;sensor_type;location;lat;lon;timestamp;P1;durP1;ratioP1;P2;durP2;ratioP2
23390;SDS011;11868;45.606;5.302;2023-05-21T00:02:07;11.90;;;8.55;;
23390;SDS011;11868;45.606;5.302;2023-05-21T00:04:36;9.73;;;8.32;;
23390;SDS011;11868;45.606;5.302;2023-05-21T00:07:01;12.25;;;9.13;;
23390;SDS011;11868;45.606;5.302;2023-05-21T00:09:27;14.48;;;9.27;;
23390;SDS011;11868;45.606;5.302;2023-05-21T00:11:53;12.27;;;9.35;;
23390;SDS011;11868;45.606;5.302;2023-05-21T00:14:18;10.48;;;8.18;;
23390;SDS011;11868;45.606;5.302;2023-05-21T00:16:43;15.55;;;7.95;;
23390;SDS011;11868;45.606;5.302;2023-05-21T00:19:10;11.77;;;8.23;;
23390;SDS011;11868;45.606;5.302;2023-05-21T00:21:36;9.65;;;7.85;;
23390;SDS011;11868;45.606;5.302;2023-05-21T00:24:02;9.35;;;7.38;;
23390;SDS011;11868;45.606;5.302;2023-05-21T00:26:27;11.23;;;8.10;;
23390;SDS011;11868;45.606;5.302;2023-05-21T00:28:53;12.15;;;8.65;;
23390;SDS011;11868;45.606;5.302;2023-05-21T00:31:18;13.13;;;8.40;;
23390;SDS011;11868;45.606;5.302;2023-05-21T00:33:43;10.50;;;8.45;;
23390;SDS011;11868;45.606;5.302;2023-05-21T00:36:09;13.52;;;8.27;;
23390;SDS011;11868;45.606;5.302;2023-05-21T00:38:38;10.07;;;8.23;;
23390;SDS011;11868;45.606;5.302;2023-05-21T00:41:08;9.95;;;7.68;;
23390;SDS011;11868;45.606;5.302;2023-05-21T00:43:34;9.38;;;8.05;;
23390;SDS011;11868;45.606;5.302;2023-05-21T00:46:00;13.00;;;8.60;;
23390;SDS011;11868;45.606;5.302;2023-05-21T00:48:25;10.15;;;8.18;;
23390;SDS011;11868;45.606;5.302;2023-05-21T00:50:50;10.30;;;8.07;;
23390;SDS011;11868;45.606;5.302;2023-05-21T00:53:16;12.75;;;8.48;;
23390;SDS011;11868;45.606;5.302;2023-05-21T00:55:43;13.77;;;8.60;;
23390;SDS011;11868;45.606;5.302;2023-05-21T00:58:09;12.52;;;9.00;;
23390;SDS011;11868;45.606;5.302;2023-05-21T01:00:35;12.57;;;8.38;;
23390;SDS011;11868;45.606;5.302;2023-05-21T01:03:04;11.52;;;8.00;;
23390;SDS011;11868;45.606;5.302;2023-05-21T01:05:30;12.02;;;9.48;;
23390;SDS011;11868;45.606;5.302;2023-05-21T01:07:56;16.08;;;8.30;;
23390;SDS011;11868;45.606;5.302;2023-05-21T01:10:23;11.80;;;9.00;;
23390;SDS011;11868;45.606;5.302;2023-05-21T01:12:49;15.23;;;8.95;;
23390;SDS011;11868;45.606;5.302;2023-05-21T01:15:15;12.32;;;9.43;;
23390;SDS011;11868;45.606;5.302;2023-05-21T01:17:40;11.38;;;8.23;;
23390;SDS011;11868;45.606;5.302;2023-05-21T01:20:06;12.82;;;9.70;;
23390;SDS011;11868;45.606;5.302;2023-05-21T01:22:35;16.70;;;8.07;;
23390;SDS011;11868;45.606;5.302;2023-05-21T01:25:03;10.98;;;9.43;;
23390;SDS011;11868;45.606;5.302;2023-05-21T01:27:29;13.73;;;9.40;;
23390;SDS011;11868;45.606;5.302;2023-05-21T01:29:54;10.35;;;8.23;;
23390;SDS011;11868;45.606;5.302;2023-05-21T01:35:03;13.13;;;9.15;;
23390;SDS011;11868;45.606;5.302;2023-05-21T01:37:42;12.35;;;8.70;;
23390;SDS011;11868;45.606;5.302;2023-05-21T01:40:14;9.82;;;8.15;;
23390;SDS011;11868;45.606;5.302;2023-05-21T01:42:51;12.43;;;8.82;;
23390;SDS011;11868;45.606;5.302;2023-05-21T01:45:17;10.65;;;8.38;;
23390;SDS011;11868;45.606;5.302;2023-05-21T01:47:44;10.07;;;8.70;;
23390;SDS011;11868;45.606;5.302;2023-05-21T01:50:11;16.08;;;9.00;;
23390;SDS011;11868;45.606;5.302;2023-05-21T01:52:37;12.32;;;8.95;;
23390;SDS011;11868;45.606;5.302;2023-05-21T01:55:03;10.45;;;8.93;;
23390;SDS011;11868;45.606;5.302;2023-05-21T01:57:28;11.70;;;8.88;;
23390;SDS011;11868;45.606;5.302;2023-05-21T01:59:54;12.85;;;9.25;;
23390;SDS011;11868;45.606;5.302;2023-05-21T02:02:20;12.15;;;9.25;;
23390;SDS011;11868;45.606;5.302;2023-05-21T02:04:45;10.15;;;8.50;;
23390;SDS011;11868;45.606;5.302;2023-05-21T02:07:11;12.75;;;9.27;;
23390;SDS011;11868;45.606;5.302;2023-05-21T02:09:39;10.10;;;8.98;;
23390;SDS011;11868;45.606;5.302;2023-05-21T02:12:05;11.05;;;9.70;;
23390;SDS011;11868;45.606;5.302;2023-05-21T02:14:31;11.82;;;9.20;;
23390;SDS011;11868;45.606;5.302;2023-05-21T02:16:58;11.98;;;8.77;;
23390;SDS011;11868;45.606;5.302;2023-05-21T02:19:24;17.13;;;9.43;;
23390;SDS011;11868;45.606;5.302;2023-05-21T02:21:50;11.40;;;9.50;;
23390;SDS011;11868;45.606;5.302;2023-05-21T02:24:15;14.85;;;9.55;;
23390;SDS011;11868;45.606;5.302;2023-05-21T02:26:40;12.90;;;9.82;;
23390;SDS011;11868;45.606;5.302;2023-05-21T02:29:07;12.65;;;9.45;;
23390;SDS011;11868;45.606;5.302;2023-05-21T02:31:32;12.45;;;10.18;;
23390;SDS011;11868;45.606;5.302;2023-05-21T02:33:58;11.95;;;9.38;;
23390;SDS011;11868;45.606;5.302;2023-05-21T02:36:23;12.85;;;9.70;;
23390;SDS011;11868;45.606;5.302;2023-05-21T02:38:49;11.65;;;9.65;;
23390;SDS011;11868;45.606;5.302;2023-05-21T02:41:14;10.38;;;9.27;;
23390;SDS011;11868;45.606;5.302;2023-05-21T02:43:40;11.63;;;9.23;;
23390;SDS011;11868;45.606;5.302;2023-05-21T02:46:05;13.43;;;9.50;;
23390;SDS011;11868;45.606;5.302;2023-05-21T02:48:31;16.85;;;9.80;;
23390;SDS011;11868;45.606;5.302;2023-05-21T02:50:57;11.68;;;9.65;;
23390;SDS011;11868;45.606;5.302;2023-05-21T02:53:23;11.18;;;9.75;;
23390;SDS011;11868;45.606;5.302;2023-05-21T02:55:48;12.38;;;9.75;;
23390;SDS011;11868;45.606;5.302;2023-05-21T02:58:14;11.75;;;9.35;;
23390;SDS011;11868;45.606;5.302;2023-05-21T03:00:39;13.82;;;9.48;;
23390;SDS011;11868;45.606;5.302;2023-05-21T03:03:05;10.30;;;9.10;;
23390;SDS011;11868;45.606;5.302;2023-05-21T03:05:31;12.13;;;9.77;;
23390;SDS011;11868;45.606;5.302;2023-05-21T03:07:56;13.05;;;10.65;;
23390;SDS011;11868;45.606;5.302;2023-05-21T03:10:21;11.48;;;9.73;;
23390;SDS011;11868;45.606;5.302;2023-05-21T03:12:47;12.73;;;10.02;;
23390;SDS011;11868;45.606;5.302;2023-05-21T03:15:12;11.85;;;10.18;;
23390;SDS011;11868;45.606;5.302;2023-05-21T03:17:40;11.80;;;10.27;;
23390;SDS011;11868;45.606;5.302;2023-05-21T03:20:09;13.15;;;9.77;;
23390;SDS011;11868;45.606;5.302;2023-05-21T03:22:41;11.00;;;9.70;;
23390;SDS011;11868;45.606;5.302;2023-05-21T03:25:07;15.02;;;9.93;;
23390;SDS011;11868;45.606;5.302;2023-05-21T03:27:33;14.50;;;9.77;;
23390;SDS011;11868;45.606;5.302;2023-05-21T03:29:58;14.68;;;10.32;;
23390;SDS011;11868;45.606;5.302;2023-05-21T03:32:23;11.73;;;9.77;;
23390;SDS011;11868;45.606;5.302;2023-05-21T03:34:49;12.30;;;9.85;;
23390;SDS011;11868;45.606;5.302;2023-05-21T03:37:14;13.65;;;10.75;;
23390;SDS011;11868;45.606;5.302;2023-05-21T03:39:40;13.10;;;9.70;;
23390;SDS011;11868;45.606;5.302;2023-05-21T03:42:05;11.27;;;9.73;;
23390;SDS011;11868;45.606;5.302;2023-05-21T03:44:30;13.52;;;9.38;;
23390;SDS011;11868;45.606;5.302;2023-05-21T03:46:56;12.07;;;10.15;;
23390;SDS011;11868;45.606;5.302;2023-05-21T03:49:23;15.68;;;10.63;;
23390;SDS011;11868;45.606;5.302;2023-05-21T03:51:49;10.65;;;8.90;;
23390;SDS011;11868;45.606;5.302;2023-05-21T03:54:15;11.68;;;10.13;;
23390;SDS011;11868;45.606;5.302;2023-05-21T03:56:40;10.88;;;9.30;;
23390;SDS011;11868;45.606;5.302;2023-05-21T03:59:05;11.10;;;9.30;;
23390;SDS011;11868;45.606;5.302;2023-05-21T04:01:31;16.77;;;10.25;;
23390;SDS011;11868;45.606;5.302;2023-05-21T04:03:57;12.10;;;9.82;;
23390;SDS011;11868;45.606;5.302;2023-05-21T04:06:22;12.48;;;9.85;;
23390;SDS011;11868;45.606;5.302;2023-05-21T04:08:47;13.63;;;9.77;;
23390;SDS011;11868;45.606;5.302;2023-05-21T04:11:13;12.73;;;10.45;;
23390;SDS011;11868;45.606;5.302;2023-05-21T04:13:38;13.18;;;10.15;;
23390;SDS011;11868;45.606;5.302;2023-05-21T04:16:03;11.70;;;10.48;;
23390;SDS011;11868;45.606;5.302;2023-05-21T04:18:29;16.55;;;10.23;;
23390;SDS011;11868;45.606;5.302;2023-05-21T04:20:54;13.98;;;10.55;;
23390;SDS011;11868;45.606;5.302;2023-05-21T04:23:20;15.35;;;10.50;;
23390;SDS011;11868;45.606;5.302;2023-05-21T04:25:47;11.65;;;9.85;;
23390;SDS011;11868;45.606;5.302;2023-05-21T04:28:14;11.77;;;10.38;;
23390;SDS011;11868;45.606;5.302;2023-05-21T04:30:43;13.70;;;9.82;;
23390;SDS011;11868;45.606;5.302;2023-05-21T04:33:09;12.82;;;9.43;;
23390;SDS011;11868;45.606;5.302;2023-05-21T04:35:35;14.23;;;10.05;;
23390;SDS011;11868;45.606;5.302;2023-05-21T04:38:00;15.45;;;9.73;;
23390;SDS011;11868;45.606;5.302;2023-05-21T04:40:26;15.23;;;9.45;;
23390;SDS011;11868;45.606;5.302;2023-05-21T04:42:51;12.75;;;9.98;;
23390;SDS011;11868;45.606;5.302;2023-05-21T04:45:16;16.30;;;10.50;;
23390;SDS011;11868;45.606;5.302;2023-05-21T04:47:42;15.32;;;10.25;;
23390;SDS011;11868;45.606;5.302;2023-05-21T04:50:07;14.27;;;10.25;;
23390;SDS011;11868;45.606;5.302;2023-05-21T04:52:34;11.40;;;9.50;;
23390;SDS011;11868;45.606;5.302;2023-05-21T04:55:00;12.18;;;10.55;;
23390;SDS011;11868;45.606;5.302;2023-05-21T04:57:26;11.93;;;9.65;;
23390;SDS011;11868;45.606;5.302;2023-05-21T04:59:52;11.88;;;9.20;;
23390;SDS011;11868;45.606;5.302;2023-05-21T05:02:17;12.27;;;9.65;;
23390;SDS011;11868;45.606;5.302;2023-05-21T05:04:43;12.65;;;10.35;;
23390;SDS011;11868;45.606;5.302;2023-05-21T05:07:08;12.25;;;9.60;;
23390;SDS011;11868;45.606;5.302;2023-05-21T05:09:34;17.05;;;11.77;;
23390;SDS011;11868;45.606;5.302;2023-05-21T05:11:59;18.20;;;13.18;;
23390;SDS011;11868;45.606;5.302;2023-05-21T05:14:25;13.65;;;11.82;;
23390;SDS011;11868;45.606;5.302;2023-05-21T05:16:50;15.55;;;12.55;;
23390;SDS011;11868;45.606;5.302;2023-05-21T05:19:16;18.40;;;12.65;;
23390;SDS011;11868;45.606;5.302;2023-05-21T05:21:41;15.65;;;11.65;;
23390;SDS011;11868;45.606;5.302;2023-05-21T05:24:08;14.30;;;11.27;;
23390;SDS011;11868;45.606;5.302;2023-05-21T05:26:33;14.32;;;11.35;;
23390;SDS011;11868;45.606;5.302;2023-05-21T05:28:58;19.33;;;11.88;;
23390;SDS011;11868;45.606;5.302;2023-05-21T05:31:24;16.40;;;12.52;;
23390;SDS011;11868;45.606;5.302;2023-05-21T05:33:49;15.30;;;12.07;;
23390;SDS011;11868;45.606;5.302;2023-05-21T05:36:14;14.80;;;12.93;;
23390;SDS011;11868;45.606;5.302;2023-05-21T05:38:40;16.80;;;12.88;;
23390;SDS011;11868;45.606;5.302;2023-05-21T05:41:05;16.48;;;12.77;;
23390;SDS011;11868;45.606;5.302;2023-05-21T05:43:31;15.30;;;13.02;;
23390;SDS011;11868;45.606;5.302;2023-05-21T05:45:56;19.05;;;11.82;;
23390;SDS011;11868;45.606;5.302;2023-05-21T05:48:21;15.93;;;11.70;;
23390;SDS011;11868;45.606;5.302;2023-05-21T05:50:47;14.80;;;12.27;;
23390;SDS011;11868;45.606;5.302;2023-05-21T05:53:12;18.15;;;12.70;;
23390;SDS011;11868;45.606;5.302;2023-05-21T05:55:38;13.45;;;8.45;;
23390;SDS011;11868;45.606;5.302;2023-05-21T05:58:04;18.30;;;10.27;;
23390;SDS011;11868;45.606;5.302;2023-05-21T06:00:30;12.07;;;9.88;;
23390;SDS011;11868;45.606;5.302;2023-05-21T06:02:55;12.43;;;10.27;;
23390;SDS011;11868;45.606;5.302;2023-05-21T06:05:21;14.85;;;9.98;;
23390;SDS011;11868;45.606;5.302;2023-05-21T06:07:46;13.60;;;10.02;;
23390;SDS011;11868;45.606;5.302;2023-05-21T06:10:11;12.35;;;9.68;;
23390;SDS011;11868;45.606;5.302;2023-05-21T06:12:37;13.70;;;10.45;;
23390;SDS011;11868;45.606;5.302;2023-05-21T06:15:03;12.70;;;10.38;;
23390;SDS011;11868;45.606;5.302;2023-05-21T06:17:29;17.15;;;11.57;;
23390;SDS011;11868;45.606;5.302;2023-05-21T06:19:55;12.55;;;10.95;;
23390;SDS011;11868;45.606;5.302;2023-05-21T06:22:21;14.48;;;10.27;;
23390;SDS011;11868;45.606;5.302;2023-05-21T06:24:46;11.85;;;9.90;;
23390;SDS011;11868;45.606;5.302;2023-05-21T06:27:11;13.18;;;10.25;;
23390;SDS011;11868;45.606;5.302;2023-05-21T06:29:37;13.98;;;9.57;;
23390;SDS011;11868;45.606;5.302;2023-05-21T06:32:04;12.88;;;10.05;;
23390;SDS011;11868;45.606;5.302;2023-05-21T06:34:31;12.38;;;9.32;;
23390;SDS011;11868;45.606;5.302;2023-05-21T06:36:56;13.73;;;10.27;;
23390;SDS011;11868;45.606;5.302;2023-05-21T06:39:21;11.02;;;9.82;;
23390;SDS011;11868;45.606;5.302;2023-05-21T06:41:48;13.70;;;9.88;;
23390;SDS011;11868;45.606;5.302;2023-05-21T06:44:13;12.38;;;9.25;;
23390;SDS011;11868;45.606;5.302;2023-05-21T06:46:40;14.07;;;9.20;;
23390;SDS011;11868;45.606;5.302;2023-05-21T06:49:06;12.48;;;9.50;;
23390;SDS011;11868;45.606;5.302;2023-05-21T06:51:31;12.80;;;9.07;;
23390;SDS011;11868;45.606;5.302;2023-05-21T06:53:57;12.55;;;9.65;;
23390;SDS011;11868;45.606;5.302;2023-05-21T06:56:22;30.10;;;14.80;;
23390;SDS011;11868;45.606;5.302;2023-05-21T06:58:48;20.33;;;12.98;;
23390;SDS011;11868;45.606;5.302;2023-05-21T07:01:13;18.52;;;12.40;;
23390;SDS011;11868;45.606;5.302;2023-05-21T07:03:40;14.98;;;10.20;;
23390;SDS011;11868;45.606;5.302;2023-05-21T07:06:06;17.08;;;10.43;;
23390;SDS011;11868;45.606;5.302;2023-05-21T07:08:31;24.25;;;15.48;;
23390;SDS011;11868;45.606;5.302;2023-05-21T07:10:57;24.48;;;17.67;;
23390;SDS011;11868;45.606;5.302;2023-05-21T07:13:22;24.30;;;16.88;;
23390;SDS011;11868;45.606;5.302;2023-05-21T07:15:48;24.10;;;14.27;;
23390;SDS011;11868;45.606;5.302;2023-05-21T07:18:13;18.55;;;12.68;;
23390;SDS011;11868;45.606;5.302;2023-05-21T07:20:38;14.57;;;10.40;;
23390;SDS011;11868;45.606;5.302;2023-05-21T07:23:04;13.15;;;10.05;;
23390;SDS011;11868;45.606;5.302;2023-05-21T07:25:29;12.75;;;9.65;;
23390;SDS011;11868;45.606;5.302;2023-05-21T07:27:55;14.57;;;8.68;;
23390;SDS011;11868;45.606;5.302;2023-05-21T07:30:20;12.82;;;9.55;;
23390;SDS011;11868;45.606;5.302;2023-05-21T07:32:45;13.77;;;9.57;;
23390;SDS011;11868;45.606;5.302;2023-05-21T07:35:11;16.25;;;10.25;;
23390;SDS011;11868;45.606;5.302;2023-05-21T07:37:36;14.35;;;10.77;;
23390;SDS011;11868;45.606;5.302;2023-05-21T07:40:01;11.65;;;9.73;;
23390;SDS011;11868;45.606;5.302;2023-05-21T07:42:28;11.88;;;9.65;;
23390;SDS011;11868;45.606;5.302;2023-05-21T07:44:55;11.38;;;9.20;;
23390;SDS011;11868;45.606;5.302;2023-05-21T07:47:20;12.88;;;10.02;;
23390;SDS011;11868;45.606;5.302;2023-05-21T07:49:47;13.77;;;9.75;;
23390;SDS011;11868;45.606;5.302;2023-05-21T07:52:12;14.13;;;9.82;;
23390;SDS011;11868;45.606;5.302;2023-05-21T07:54:38;15.77;;;11.25;;
23390;SDS011;11868;45.606;5.302;2023-05-21T07:57:03;16.10;;;10.65;;
23390;SDS011;11868;45.606;5.302;2023-05-21T07:59:29;12.27;;;10.20;;
23390;SDS011;11868;45.606;5.302;2023-05-21T08:01:54;14.13;;;10.63;;
23390;SDS011;11868;45.606;5.302;2023-05-21T08:04:20;15.48;;;11.48;;
23390;SDS011;11868;45.606;5.302;2023-05-21T08:06:45;12.27;;;10.10;;
23390;SDS011;11868;45.606;5.302;2023-05-21T08:09:12;11.75;;;10.35;;
23390;SDS011;11868;45.606;5.302;2023-05-21T08:11:38;12.20;;;10.00;;
23390;SDS011;11868;45.606;5.302;2023-05-21T08:14:03;14.18;;;10.35;;
23390;SDS011;11868;45.606;5.302;2023-05-21T08:16:28;12.93;;;9.73;;
23390;SDS011;11868;45.606;5.302;2023-05-21T08:18:54;13.02;;;10.25;;
23390;SDS011;11868;45.606;5.302;2023-05-21T08:21:19;12.60;;;10.02;;
23390;SDS011;11868;45.606;5.302;2023-05-21T08:23:45;11.90;;;10.20;;
23390;SDS011;11868;45.606;5.302;2023-05-21T08:26:10;12.15;;;10.32;;
23390;SDS011;11868;45.606;5.302;2023-05-21T08:28:39;12.32;;;10.50;;
23390;SDS011;11868;45.606;5.302;2023-05-21T08:31:04;12.37;;;10.90;;
23390;SDS011;11868;45.606;5.302;2023-05-21T08:33:30;13.60;;;10.07;;
23390;SDS011;11868;45.606;5.302;2023-05-21T08:35:55;10.60;;;8.70;;
23390;SDS011;11868;45.606;5.302;2023-05-21T08:38:21;14.15;;;10.18;;
23390;SDS011;11868;45.606;5.302;2023-05-21T08:40:46;15.60;;;10.35;;
23390;SDS011;11868;45.606;5.302;2023-05-21T08:43:12;11.27;;;9.38;;
23390;SDS011;11868;45.606;5.302;2023-05-21T08:45:40;13.80;;;10.87;;
23390;SDS011;11868;45.606;5.302;2023-05-21T08:48:08;13.60;;;11.25;;
23390;SDS011;11868;45.606;5.302;2023-05-21T08:50:36;15.27;;;10.75;;
23390;SDS011;11868;45.606;5.302;2023-05-21T08:53:01;12.48;;;11.18;;
23390;SDS011;11868;45.606;5.302;2023-05-21T08:55:27;14.15;;;10.15;;
23390;SDS011;11868;45.606;5.302;2023-05-21T08:57:52;13.30;;;10.52;;
23390;SDS011;11868;45.606;5.302;2023-05-21T09:00:18;16.75;;;11.00;;
23390;SDS011;11868;45.606;5.302;2023-05-21T09:05:13;12.57;;;10.02;;
23390;SDS011;11868;45.606;5.302;2023-05-21T09:07:43;14.30;;;10.77;;
23390;SDS011;11868;45.606;5.302;2023-05-21T09:10:16;12.43;;;10.45;;
23390;SDS011;11868;45.606;5.302;2023-05-21T09:12:42;12.45;;;10.98;;
23390;SDS011;11868;45.606;5.302;2023-05-21T09:15:08;13.27;;;10.48;;
23390;SDS011;11868;45.606;5.302;2023-05-21T09:17:34;11.65;;;10.40;;
23390;SDS011;11868;45.606;5.302;2023-05-21T09:22:45;14.85;;;10.52;;
23390;SDS011;11868;45.606;5.302;2023-05-21T09:25:12;13.60;;;10.73;;
23390;SDS011;11868;45.606;5.302;2023-05-21T09:27:39;12.73;;;10.52;;
23390;SDS011;11868;45.606;5.302;2023-05-21T09:30:08;15.27;;;10.48;;
23390;SDS011;11868;45.606;5.302;2023-05-21T09:32:37;13.75;;;10.63;;
23390;SDS011;11868;45.606;5.302;2023-05-21T09:35:10;12.43;;;10.57;;
23390;SDS011;11868;45.606;5.302;2023-05-21T09:37:40;175.40;;;21.63;;
23390;SDS011;11868;45.606;5.302;2023-05-21T09:42:45;15.48;;;10.45;;
23390;SDS011;11868;45.606;5.302;2023-05-21T09:45:21;34.08;;;12.35;;
23390;SDS011;11868;45.606;5.302;2023-05-21T09:47:48;31.35;;;12.57;;
23390;SDS011;11868;45.606;5.302;2023-05-21T09:50:17;16.27;;;11.82;;
23390;SDS011;11868;45.606;5.302;2023-05-21T09:52:44;18.17;;;11.68;;
23390;SDS011;11868;45.606;5.302;2023-05-21T09:55:10;15.05;;;11.77;;
23390;SDS011;11868;45.606;5.302;2023-05-21T09:57:40;13.65;;;11.60;;
23390;SDS011;11868;45.606;5.302;2023-05-21T10:00:15;13.80;;;10.40;;
23390;SDS011;11868;45.606;5.302;2023-05-21T10:02:41;16.23;;;11.02;;
23390;SDS011;11868;45.606;5.302;2023-05-21T10:05:08;13.20;;;10.73;;
23390;SDS011;11868;45.606;5.302;2023-05-21T10:07:34;15.10;;;10.93;;
23390;SDS011;11868;45.606;5.302;2023-05-21T10:10:00;17.63;;;11.05;;
23390;SDS011;11868;45.606;5.302;2023-05-21T10:12:28;12.52;;;10.30;;
23390;SDS011;11868;45.606;5.302;2023-05-21T10:15:02;16.67;;;11.63;;
23390;SDS011;11868;45.606;5.302;2023-05-21T10:17:28;14.15;;;10.63;;
23390;SDS011;11868;45.606;5.302;2023-05-21T10:19:58;13.77;;;10.27;;
23390;SDS011;11868;45.606;5.302;2023-05-21T10:22:24;11.07;;;9.85;;
23390;SDS011;11868;45.606;5.302;2023-05-21T10:24:53;14.63;;;9.98;;
23390;SDS011;11868;45.606;5.302;2023-05-21T10:27:18;16.07;;;11.10;;
23390;SDS011;11868;45.606;5.302;2023-05-21T10:29:44;13.35;;;11.43;;
23390;SDS011;11868;45.606;5.302;2023-05-21T10:32:14;14.50;;;11.15;;
23390;SDS011;11868;45.606;5.302;2023-05-21T10:34:41;14.68;;;11.30;;
23390;SDS011;11868;45.606;5.302;2023-05-21T10:37:07;13.38;;;11.95;;
23390;SDS011;11868;45.606;5.302;2023-05-21T10:39:34;16.08;;;11.55;;
23390;SDS011;11868;45.606;5.302;2023-05-21T10:50:02;11.55;;;10.35;;
23390;SDS011;11868;45.606;5.302;2023-05-21T10:58:21;14.73;;;10.77;;
23390;SDS011;11868;45.606;5.302;2023-05-21T11:01:01;33.97;;;23.25;;
23390;SDS011;11868;45.606;5.302;2023-05-21T11:03:27;10.98;;;9.88;;
23390;SDS011;11868;45.606;5.302;2023-05-21T11:05:54;12.52;;;9.45;;
23390;SDS011;11868;45.606;5.302;2023-05-21T11:11:00;17.30;;;10.07;;
23390;SDS011;11868;45.606;5.302;2023-05-21T11:13:26;11.35;;;7.90;;
23390;SDS011;11868;45.606;5.302;2023-05-21T11:18:22;14.93;;;10.23;;
23390;SDS011;11868;45.606;5.302;2023-05-21T11:23:56;13.13;;;9.07;;
23390;SDS011;11868;45.606;5.302;2023-05-21T11:26:28;10.18;;;8.82;;
23390;SDS011;11868;45.606;5.302;2023-05-21T11:31:30;13.85;;;9.65;;
23390;SDS011;11868;45.606;5.302;2023-05-21T11:36:43;9.75;;;8.75;;
23390;SDS011;11868;45.606;5.302;2023-05-21T11:39:10;13.65;;;10.30;;
23390;SDS011;11868;45.606;5.302;2023-05-21T11:41:51;11.55;;;10.35;;
23390;SDS011;11868;45.606;5.302;2023-05-21T11:44:17;11.68;;;10.18;;
23390;SDS011;11868;45.606;5.302;2023-05-21T11:46:43;10.35;;;8.55;;
23390;SDS011;11868;45.606;5.302;2023-05-21T11:49:08;13.85;;;9.38;;
23390;SDS011;11868;45.606;5.302;2023-05-21T11:51:34;13.20;;;9.73;;
23390;SDS011;11868;45.606;5.302;2023-05-21T11:54:00;13.35;;;8.77;;
23390;SDS011;11868;45.606;5.302;2023-05-21T11:56:27;14.40;;;9.45;;
23390;SDS011;11868;45.606;5.302;2023-05-21T11:58:53;15.30;;;9.75;;
23390;SDS011;11868;45.606;5.302;2023-05-21T12:01:22;13.82;;;10.23;;
23390;SDS011;11868;45.606;5.302;2023-05-21T12:03:48;9.32;;;8.35;;
23390;SDS011;11868;45.606;5.302;2023-05-21T12:06:14;9.68;;;8.65;;
23390;SDS011;11868;45.606;5.302;2023-05-21T12:08:41;12.38;;;8.52;;
23390;SDS011;11868;45.606;5.302;2023-05-21T12:11:07;10.95;;;8.68;;
23390;SDS011;11868;45.606;5.302;2023-05-21T12:13:32;10.93;;;9.80;;
23390;SDS011;11868;45.606;5.302;2023-05-21T12:15:58;9.88;;;8.82;;
23390;SDS011;11868;45.606;5.302;2023-05-21T12:18:23;10.68;;;8.73;;
23390;SDS011;11868;45.606;5.302;2023-05-21T12:20:52;10.88;;;8.75;;
23390;SDS011;11868;45.606;5.302;2023-05-21T12:23:24;11.87;;;8.83;;
23390;SDS011;11868;45.606;5.302;2023-05-21T12:25:49;11.38;;;9.00;;
23390;SDS011;11868;45.606;5.302;2023-05-21T12:28:15;12.88;;;8.57;;
23390;SDS011;11868;45.606;5.302;2023-05-21T12:30:40;9.77;;;7.95;;
23390;SDS011;11868;45.606;5.302;2023-05-21T12:33:06;11.90;;;8.48;;
23390;SDS011;11868;45.606;5.302;2023-05-21T12:35:31;9.80;;;7.80;;
23390;SDS011;11868;45.606;5.302;2023-05-21T12:37:59;8.82;;;7.97;;
23390;SDS011;11868;45.606;5.302;2023-05-21T12:40:34;9.23;;;7.70;;
23390;SDS011;11868;45.606;5.302;2023-05-21T12:43:01;9.07;;;7.70;;
23390;SDS011;11868;45.606;5.302;2023-05-21T12:45:27;11.68;;;8.07;;
23390;SDS011;11868;45.606;5.302;2023-05-21T12:47:53;10.65;;;7.35;;
23390;SDS011;11868;45.606;5.302;2023-05-21T12:50:20;8.65;;;7.45;;
23390;SDS011;11868;45.606;5.302;2023-05-21T12:52:45;7.20;;;6.40;;
23390;SDS011;11868;45.606;5.302;2023-05-21T12:55:14;9.30;;;6.45;;
23390;SDS011;11868;45.606;5.302;2023-05-21T12:57:40;8.20;;;6.30;;
23390;SDS011;11868;45.606;5.302;2023-05-21T13:00:08;9.15;;;8.15;;
23390;SDS011;11868;45.606;5.302;2023-05-21T13:02:41;10.60;;;8.15;;
23390;SDS011;11868;45.606;5.302;2023-05-21T13:05:08;8.20;;;7.40;;
23390;SDS011;11868;45.606;5.302;2023-05-21T13:07:35;12.18;;;7.85;;
23390;SDS011;11868;45.606;5.302;2023-05-21T13:10:02;9.73;;;8.27;;
23390;SDS011;11868;45.606;5.302;2023-05-21T13:12:29;10.35;;;8.15;;
23390;SDS011;11868;45.606;5.302;2023-05-21T13:14:55;11.60;;;7.57;;
23390;SDS011;11868;45.606;5.302;2023-05-21T13:17:22;8.30;;;7.47;;
23390;SDS011;11868;45.606;5.302;2023-05-21T13:22:45;8.13;;;7.20;;
23390;SDS011;11868;45.606;5.302;2023-05-21T13:25:11;8.70;;;7.70;;
23390;SDS011;11868;45.606;5.302;2023-05-21T13:27:40;11.38;;;8.20;;
23390;SDS011;11868;45.606;5.302;2023-05-21T13:30:06;8.98;;;7.85;;
23390;SDS011;11868;45.606;5.302;2023-05-21T13:32:34;9.13;;;6.90;;
23390;SDS011;11868;45.606;5.302;2023-05-21T13:35:00;7.38;;;6.68;;
23390;SDS011;11868;45.606;5.302;2023-05-21T13:37:25;7.53;;;6.75;;
23390;SDS011;11868;45.606;5.302;2023-05-21T13:39:51;10.60;;;7.35;;
23390;SDS011;11868;45.606;5.302;2023-05-21T13:42:16;8.23;;;7.43;;
23390;SDS011;11868;45.606;5.302;2023-05-21T13:44:42;8.70;;;7.80;;
23390;SDS011;11868;45.606;5.302;2023-05-21T13:47:07;9.43;;;7.07;;
23390;SDS011;11868;45.606;5.302;2023-05-21T13:49:34;8.60;;;6.88;;
23390;SDS011;11868;45.606;5.302;2023-05-21T13:52:00;8.88;;;7.13;;
23390;SDS011;11868;45.606;5.302;2023-05-21T13:54:25;7.85;;;7.00;;
23390;SDS011;11868;45.606;5.302;2023-05-21T13:56:51;11.02;;;7.70;;
23390;SDS011;11868;45.606;5.302;2023-05-21T13:59:17;7.60;;;6.30;;
23390;SDS011;11868;45.606;5.302;2023-05-21T14:01:42;7.40;;;6.70;;
23390;SDS011;11868;45.606;5.302;2023-05-21T14:06:36;10.07;;;7.40;;
23390;SDS011;11868;45.606;5.302;2023-05-21T14:09:02;9.57;;;7.18;;
23390;SDS011;11868;45.606;5.302;2023-05-21T14:11:29;7.75;;;6.95;;
23390;SDS011;11868;45.606;5.302;2023-05-21T14:13:56;10.95;;;7.18;;
23390;SDS011;11868;45.606;5.302;2023-05-21T14:16:22;11.10;;;7.20;;
23390;SDS011;11868;45.606;5.302;2023-05-21T14:18:49;8.10;;;6.97;;
23390;SDS011;11868;45.606;5.302;2023-05-21T14:21:15;10.20;;;6.80;;
23390;SDS011;11868;45.606;5.302;2023-05-21T14:23:40;9.95;;;6.90;;
23390;SDS011;11868;45.606;5.302;2023-05-21T14:26:05;7.80;;;6.50;;
23390;SDS011;11868;45.606;5.302;2023-05-21T14:28:31;9.63;;;6.57;;
23390;SDS011;11868;45.606;5.302;2023-05-21T14:30:56;8.02;;;6.97;;
23390;SDS011;11868;45.606;5.302;2023-05-21T14:33:21;9.57;;;6.68;;
23390;SDS011;11868;45.606;5.302;2023-05-21T14:35:47;8.27;;;6.82;;
23390;SDS011;11868;45.606;5.302;2023-05-21T14:38:12;8.32;;;7.20;;
23390;SDS011;11868;45.606;5.302;2023-05-21T14:40:38;8.38;;;6.70;;
23390;SDS011;11868;45.606;5.302;2023-05-21T14:43:03;9.77;;;7.13;;
23390;SDS011;11868;45.606;5.302;2023-05-21T14:45:30;7.07;;;6.38;;
23390;SDS011;11868;45.606;5.302;2023-05-21T14:47:58;8.48;;;6.30;;
23390;SDS011;11868;45.606;5.302;2023-05-21T14:50:23;9.20;;;7.30;;
23390;SDS011;11868;45.606;5.302;2023-05-21T14:52:49;8.52;;;6.57;;
23390;SDS011;11868;45.606;5.302;2023-05-21T14:55:14;10.75;;;7.82;;
23390;SDS011;11868;45.606;5.302;2023-05-21T14:57:42;8.95;;;7.32;;
23390;SDS011;11868;45.606;5.302;2023-05-21T15:00:07;8.70;;;7.80;;
23390;SDS011;11868;45.606;5.302;2023-05-21T15:02:34;10.38;;;7.95;;
23390;SDS011;11868;45.606;5.302;2023-05-21T15:04:59;12.00;;;7.40;;
23390;SDS011;11868;45.606;5.302;2023-05-21T15:07:25;9.45;;;6.10;;
23390;SDS011;11868;45.606;5.302;2023-05-21T15:09:50;8.98;;;7.05;;